Time;durP1;ratioP1;P1;durP2;ratioP2;P2;SDS_P1;SDS_P2;PMS_P1;PMS_P2;Temp;Humidity;BMP_temperature;BMP_pressure;BME280_temperature;BME280_humidity;BME280_pressure;Samples;Min_cycle;Max_cycle;Signal;HPM_P1;HPM_P2
2023/02/19 00:01:09;;;;;;;18.52;9.88;;;8.60;99.90;;;;;;12372642;28;20193;-82
2023/02/19 00:07:11;;;;;;;22.00;11.00;;;8.60;99.90;;;;;;12382841;28;20050;-83
2023/02/19 00:13:13;;;;;;;19.75;10.88;;;8.60;99.90;;;;;;12355050;28;20057;-82
2023/02/19 00:19:18;;;;;;;21.65;11.23;;;8.60;99.90;;;;;;12375592;28;20055;-82
2023/02/19 00:25:20;;;;;;;21.92;11.25;;;8.60;99.90;;;;;;12377995;28;20539;-82
2023/02/19 00:31:26;;;;;;;20.40;12.15;;;8.60;99.90;;;;;;12375824;28;20133;-82
2023/02/19 00:37:28;;;;;;;21.05;11.35;;;8.70;99.90;;;;;;12372651;28;20058;-82
2023/02/19 00:43:30;;;;;;;20.75;10.88;;;8.70;99.90;;;;;;12358275;28;20556;-82
2023/02/19 00:49:32;;;;;;;18.08;9.50;;;8.70;99.90;;;;;;12372704;28;20527;-82
2023/02/19 00:55:33;;;;;;;11.85;6.57;;;8.80;99.90;;;;;;12390487;28;20129;-83
2023/02/19 01:01:36;;;;;;;10.32;6.63;;;8.80;99.90;;;;;;12375716;28;20051;-82
2023/02/19 01:07:38;;;;;;;11.52;6.97;;;8.90;99.90;;;;;;12368805;28;20126;-82
2023/02/19 01:13:40;;;;;;;14.10;7.13;;;9.00;99.90;;;;;;12365972;28;20053;-82
2023/02/19 01:19:42;;;;;;;12.80;6.57;;;9.00;99.90;;;;;;12368880;28;20057;-82
2023/02/19 01:25:44;;;;;;;11.55;6.80;;;8.90;99.90;;;;;;12387654;28;20038;-82
2023/02/19 01:31:46;;;;;;;12.38;7.10;;;8.90;99.90;;;;;;12383834;28;20042;-83
2023/02/19 01:37:48;;;;;;;12.57;7.47;;;8.90;99.90;;;;;;12390246;28;20050;-82
2023/02/19 01:43:59;;;;;;;11.25;6.97;;;8.90;99.90;;;;;;12359152;28;20050;-82
2023/02/19 01:50:00;;;;;;;13.77;8.02;;;8.90;99.90;;;;;;12389072;28;20074;-82
2023/02/19 01:56:04;;;;;;;12.35;7.18;;;8.90;99.90;;;;;;12379207;28;20062;-83
2023/02/19 02:02:06;;;;;;;13.05;7.95;;;8.90;99.90;;;;;;12383147;28;20054;-83
2023/02/19 02:14:32;;;;;;;11.13;7.18;;;8.90;99.90;;;;;;12373173;28;20755;-82
2023/02/19 02:20:48;;;;;;;13.10;7.32;;;9.00;99.90;;;;;;12389299;28;20060;-82
2023/02/19 02:27:23;;;;;;;10.25;6.78;;;9.00;99.90;;;;;;12376487;28;20057;-82
2023/02/19 02:33:38;;;;;;;;;;;9.00;99.90;;;;;;12350346;28;20043;-82
2023/02/19 02:39:43;;;;;;;11.63;7.20;;;9.00;99.90;;;;;;12399320;28;19922;-82
2023/02/19 02:45:45;;;;;;;12.70;7.57;;;9.10;99.90;;;;;;12370316;28;20568;-83
2023/02/19 02:51:51;;;;;;;12.70;7.70;;;9.00;99.90;;;;;;12404687;28;20042;-82
2023/02/19 02:57:53;;;;;;;13.82;8.18;;;9.10;99.90;;;;;;12437413;28;20122;-83
2023/02/19 03:04:07;;;;;;;14.02;9.25;;;9.10;99.90;;;;;;12434580;28;20118;-82
2023/02/19 03:10:14;;;;;;;18.07;9.37;;;9.20;99.90;;;;;;12443582;28;20438;-83
2023/02/19 03:22:53;;;;;;;16.95;10.07;;;9.20;99.90;;;;;;12407761;28;20505;-82
2023/02/19 03:35:23;;;;;;;20.38;10.88;;;9.10;99.90;;;;;;12372380;28;20181;-82
2023/02/19 03:41:30;;;;;;;19.35;10.27;;;9.20;99.90;;;;;;12381061;28;20054;-82
2023/02/19 03:47:48;;;;;;;19.42;10.90;;;9.20;99.90;;;;;;12385523;28;20050;-82
2023/02/19 03:54:11;;;;;;;20.00;10.55;;;9.20;99.90;;;;;;12409014;28;20038;-83
2023/02/19 04:00:22;;;;;;;23.23;11.52;;;9.10;99.90;;;;;;12427524;28;20049;-82
2023/02/19 04:06:30;;;;;;;20.60;11.25;;;9.20;99.90;;;;;;12405994;28;20054;-83
2023/02/19 04:12:34;;;;;;;23.38;12.60;;;9.00;99.90;;;;;;12411159;28;20490;-83
2023/02/19 04:18:39;;;;;;;22.30;12.18;;;9.00;99.90;;;;;;12424162;28;20050;-83
2023/02/19 04:24:51;;;;;;;17.35;10.77;;;8.90;99.90;;;;;;12353203;28;20462;-82
2023/02/19 04:30:53;;;;;;;20.00;10.88;;;8.90;99.90;;;;;;12366271;28;20077;-83
2023/02/19 04:36:54;;;;;;;17.13;10.60;;;9.00;99.90;;;;;;12384559;28;20066;-82
2023/02/19 04:42:56;;;;;;;18.77;10.25;;;9.00;99.90;;;;;;12395158;28;20343;-82
2023/02/19 04:48:58;;;;;;;14.60;9.35;;;9.00;99.90;;;;;;12381823;28;20561;-82
2023/02/19 04:55:00;;;;;;;19.92;8.73;;;9.00;99.90;;;;;;12351864;28;20055;-82
2023/02/19 05:01:02;;;;;;;17.67;8.30;;;9.00;99.90;;;;;;12375544;28;20051;-82
2023/02/19 05:07:04;;;;;;;11.57;6.78;;;9.00;99.90;;;;;;12390684;28;20581;-82
2023/02/19 05:13:06;;;;;;;12.68;6.20;;;9.00;99.90;;;;;;12397114;28;20038;-82
2023/02/19 05:19:11;;;;;;;10.23;5.82;;;9.00;99.90;;;;;;12383560;28;20050;-82
2023/02/19 05:25:15;;;;;;;10.30;5.30;;;9.00;99.90;;;;;;12368621;28;20042;-82
2023/02/19 05:31:18;;;;;;;9.43;5.45;;;9.00;99.90;;;;;;12378590;28;20054;-83
2023/02/19 05:37:20;;;;;;;5.75;3.28;;;8.90;99.90;;;;;;12369486;28;20486;-82
2023/02/19 05:43:24;;;;;;;3.00;1.77;;;7.90;99.90;;;;;;12394963;28;20129;-82
2023/02/19 05:49:26;;;;;;;1.95;1.13;;;7.20;99.90;;;;;;12383987;28;20505;-82
2023/02/19 05:55:29;;;;;;;1.83;0.90;;;6.80;99.90;;;;;;12394968;28;20062;-82
2023/02/19 06:01:31;;;;;;;1.60;0.90;;;6.70;99.90;;;;;;12381239;28;20188;-81
2023/02/19 06:07:34;;;;;;;3.45;0.90;;;6.60;99.90;;;;;;12391695;28;20042;-81
2023/02/19 06:13:36;;;;;;;1.73;0.85;;;6.50;99.90;;;;;;12362662;28;20043;-82
2023/02/19 06:19:38;;;;;;;1.80;0.88;;;6.40;99.90;;;;;;12358951;28;20054;-81
2023/02/19 06:25:40;;;;;;;2.90;1.33;;;6.40;99.90;;;;;;12346892;28;20384;-82
2023/02/19 06:31:43;;;;;;;2.95;1.55;;;6.30;99.90;;;;;;12359979;28;20046;-81
2023/02/19 06:37:46;;;;;;;3.35;1.85;;;6.30;99.90;;;;;;12368961;28;20062;-81
2023/02/19 06:43:48;;;;;;;3.50;1.73;;;6.10;99.90;;;;;;12372453;28;20104;-81
2023/02/19 06:49:50;;;;;;;4.03;2.10;;;6.00;99.90;;;;;;12376621;28;20062;-81
2023/02/19 06:56:04;;;;;;;4.90;2.03;;;6.10;99.90;;;;;;12376757;28;20582;-82
2023/02/19 07:02:08;;;;;;;3.13;1.70;;;6.00;99.90;;;;;;12383298;28;20050;-81
2023/02/19 07:08:10;;;;;;;1.75;1.13;;;6.00;99.90;;;;;;12373344;28;20046;-81
2023/02/19 07:14:14;;;;;;;2.45;1.40;;;6.00;99.90;;;;;;12358276;28;20145;-81
2023/02/19 07:20:16;;;;;;;2.00;1.33;;;5.80;99.90;;;;;;12375369;28;20054;-82
2023/02/19 07:26:19;;;;;;;4.15;1.80;;;5.60;99.90;;;;;;12365857;28;20101;-82
2023/02/19 07:32:21;;;;;;;2.85;1.67;;;5.60;99.90;;;;;;12371567;28;20149;-81
2023/02/19 07:38:24;;;;;;;2.80;1.80;;;5.50;99.90;;;;;;12363658;28;20065;-81
2023/02/19 07:44:26;;;;;;;3.95;1.63;;;5.50;99.90;;;;;;12359441;28;20061;-81
2023/02/19 07:50:28;;;;;;;2.90;1.63;;;5.40;99.90;;;;;;12379861;28;20524;-81
2023/02/19 07:56:30;;;;;;;4.82;2.13;;;5.40;99.90;;;;;;12382476;28;20054;-81
2023/02/19 08:08:52;;;;;;;4.03;2.17;;;5.50;99.90;;;;;;12381414;28;20043;-81
2023/02/19 08:14:56;;;;;;;;;;;5.40;99.90;;;;;;12405681;28;20045;-81
2023/02/19 08:20:59;;;;;;;5.28;1.73;;;5.40;99.90;;;;;;12403322;28;20381;-81
2023/02/19 08:27:01;;;;;;;4.10;2.17;;;5.50;99.90;;;;;;12414471;28;20046;-81
2023/02/19 08:33:05;;;;;;;5.28;1.85;;;5.50;99.90;;;;;;12378843;28;20526;-81
2023/02/19 08:39:07;;;;;;;4.67;1.60;;;5.60;99.90;;;;;;12346425;28;20082;-81
2023/02/19 08:45:09;;;;;;;4.78;1.38;;;5.50;99.90;;;;;;12352372;28;20047;-81
2023/02/19 08:51:11;;;;;;;2.72;1.48;;;5.60;99.90;;;;;;12369202;28;20193;-81
2023/02/19 08:57:13;;;;;;;2.75;1.25;;;5.70;99.90;;;;;;12348249;28;20157;-81
2023/02/19 09:03:15;;;;;;;2.83;1.27;;;5.80;99.90;;;;;;12391890;28;20491;-81
2023/02/19 09:09:17;;;;;;;3.58;1.70;;;5.70;99.90;;;;;;12368751;28;20739;-81
2023/02/19 09:15:19;;;;;;;2.63;1.33;;;6.10;99.90;;;;;;12351150;28;20141;-81
2023/02/19 09:21:21;;;;;;;3.35;1.90;;;6.10;99.90;;;;;;12369759;28;20507;-81
2023/02/19 09:27:23;;;;;;;4.78;1.80;;;6.10;99.90;;;;;;12375941;28;20058;-81
2023/02/19 09:33:25;;;;;;;4.55;2.00;;;6.10;99.90;;;;;;12354575;28;20042;-81
2023/02/19 09:39:27;;;;;;;3.45;2.15;;;5.90;99.90;;;;;;12361848;28;20065;-81
2023/02/19 09:45:29;;;;;;;2.63;1.48;;;6.40;99.90;;;;;;12375680;28;21186;-81
2023/02/19 09:51:35;;;;;;;2.83;1.70;;;6.20;99.90;;;;;;12364867;28;20065;-82
2023/02/19 09:57:37;;;;;;;3.67;1.92;;;6.30;99.90;;;;;;12358839;28;20124;-82
2023/02/19 10:03:43;;;;;;;3.83;1.55;;;6.70;99.90;;;;;;12377772;28;20077;-81
2023/02/19 10:09:51;;;;;;;5.10;1.83;;;6.50;99.90;;;;;;12346028;28;20050;-82
2023/02/19 10:15:57;;;;;;;3.53;1.67;;;6.80;99.90;;;;;;12350259;28;20053;-82
2023/02/19 10:22:02;;;;;;;3.25;1.60;;;6.50;99.90;;;;;;12370453;28;20388;-82
2023/02/19 10:28:12;;;;;;;3.55;1.80;;;6.70;99.90;;;;;;12381778;28;20181;-82
2023/02/19 10:34:21;;;;;;;2.30;1.35;;;6.70;99.90;;;;;;12367313;28;20042;-82
2023/02/19 10:40:26;;;;;;;3.90;1.73;;;7.20;99.90;;;;;;12357567;28;20047;-82
2023/02/19 10:46:36;;;;;;;4.80;2.95;;;7.50;99.90;;;;;;12360955;28;20053;-82
2023/02/19 10:52:38;;;;;;;3.40;2.22;;;7.70;99.90;;;;;;12348502;28;20125;-82
2023/02/19 10:58:43;;;;;;;5.10;2.55;;;7.60;99.90;;;;;;12363777;28;20517;-82
2023/02/19 11:05:16;;;;;;;4.35;1.58;;;7.30;99.90;;;;;;12359272;28;20057;-82
2023/02/19 11:11:26;;;;;;;3.70;1.90;;;7.10;99.90;;;;;;12363876;28;20161;-82
2023/02/19 11:17:29;;;;;;;5.20;2.60;;;7.50;99.90;;;;;;12377955;28;20053;-82
2023/02/19 11:23:34;;;;;;;4.07;2.58;;;7.30;99.90;;;;;;12395955;28;20136;-82
2023/02/19 11:29:36;;;;;;;4.68;3.15;;;7.10;99.90;;;;;;12425572;28;20052;-82
2023/02/19 11:35:38;;;;;;;5.50;2.70;;;7.30;99.90;;;;;;12402119;28;20046;-82
2023/02/19 11:42:01;;;;;;;4.65;2.53;;;7.70;99.90;;;;;;12437141;28;20112;-82
2023/02/19 11:48:12;;;;;;;4.00;2.30;;;7.80;99.90;;;;;;12434303;28;20294;-82
2023/02/19 11:54:35;;;;;;;3.38;2.10;;;8.10;99.90;;;;;;12404612;28;20045;-82
2023/02/19 12:00:52;;;;;;;4.13;2.35;;;8.00;99.90;;;;;;12414111;28;20092;-82
2023/02/19 12:07:23;;;;;;;1.98;1.33;;;7.60;99.90;;;;;;12410071;28;20445;-82
2023/02/19 12:13:40;;;;;;;2.60;1.20;;;7.50;99.90;;;;;;12413245;28;20092;-82
2023/02/19 12:20:06;;;;;;;2.75;1.60;;;8.50;99.90;;;;;;12404199;28;20050;-82
2023/02/19 12:26:17;;;;;;;4.35;2.15;;;8.70;99.90;;;;;;12407883;28;20116;-82
2023/02/19 12:33:03;;;;;;;4.68;1.80;;;8.60;99.90;;;;;;12409217;28;20508;-82
2023/02/19 12:39:36;;;;;;;2.63;1.60;;;8.20;99.90;;;;;;12313278;28;20037;-82
2023/02/19 12:46:07;;;;;;;2.60;1.20;;;7.80;99.90;;;;;;12387350;28;20042;-81
2023/02/19 12:52:17;;;;;;;2.47;1.20;;;7.50;99.90;;;;;;12402398;28;20123;-82
2023/02/19 12:58:43;;;;;;;2.22;1.50;;;7.80;99.90;;;;;;12391502;28;20054;-82
2023/02/19 13:05:04;;;;;;;3.70;1.63;;;8.10;99.90;;;;;;12423189;28;20041;-82
2023/02/19 13:11:44;;;;;;;3.65;1.60;;;8.10;99.90;;;;;;12417576;28;20497;-82
2023/02/19 13:17:51;;;;;;;3.00;1.48;;;7.90;99.90;;;;;;12374940;28;20049;-81
2023/02/19 13:24:00;;;;;;;3.08;1.40;;;8.20;99.90;;;;;;12405264;28;20038;-82
2023/02/19 13:30:31;;;;;;;3.28;1.45;;;8.50;99.90;;;;;;12380187;28;20043;-82
2023/02/19 13:36:35;;;;;;;2.97;1.77;;;8.50;99.90;;;;;;12392793;28;20185;-82
2023/02/19 13:42:37;;;;;;;2.07;1.20;;;8.20;99.90;;;;;;12389212;28;20100;-82
2023/02/19 13:48:42;;;;;;;1.88;1.13;;;7.90;99.90;;;;;;12379602;28;20588;-82
2023/02/19 13:54:43;;;;;;;;;;;8.10;99.90;;;;;;12384789;28;20081;-83
2023/02/19 14:00:48;;;;;;;4.30;1.60;;;7.90;99.90;;;;;;12389633;28;20358;-82
2023/02/19 14:07:02;;;;;;;;;;;8.00;99.90;;;;;;12402412;28;20050;-82
2023/02/19 14:13:07;;;;;;;2.30;1.35;;;7.70;99.90;;;;;;12380232;28;20293;-82
2023/02/19 14:19:40;;;;;;;4.85;1.88;;;7.90;99.90;;;;;;12362273;28;20077;-82
2023/02/19 14:26:10;;;;;;;4.00;1.88;;;7.90;99.90;;;;;;12379504;28;20050;-82
2023/02/19 14:32:18;;;;;;;4.57;1.95;;;7.80;99.90;;;;;;12376339;28;20050;-82
2023/02/19 14:38:37;;;;;;;8.07;3.85;;;7.60;99.90;;;;;;12366579;28;20138;-82
2023/02/19 14:44:44;;;;;;;6.75;3.03;;;7.70;99.90;;;;;;12360959;28;20419;-82
2023/02/19 14:50:50;;;;;;;5.10;2.95;;;7.50;99.90;;;;;;12387805;28;20125;-82
2023/02/19 14:56:53;;;;;;;6.15;3.20;;;7.30;99.90;;;;;;12369854;28;20441;-82
2023/02/19 15:02:58;;;;;;;6.68;3.60;;;7.30;99.90;;;;;;12375506;28;20050;-82
2023/02/19 15:09:06;;;;;;;6.40;3.97;;;7.40;99.90;;;;;;12404506;28;20532;-82
2023/02/19 15:15:15;;;;;;;39.72;15.07;;;7.40;99.90;;;;;;12375443;28;20088;-82
2023/02/19 15:21:24;;;;;;;5.80;3.78;;;7.40;99.90;;;;;;12380956;28;20050;-82
2023/02/19 15:27:25;;;;;;;7.20;3.70;;;7.40;99.90;;;;;;12375237;28;20092;-82
2023/02/19 15:33:27;;;;;;;5.78;3.30;;;7.30;99.90;;;;;;12381510;28;20107;-82
2023/02/19 15:39:50;;;;;;;6.57;4.10;;;7.00;99.90;;;;;;12376156;28;20071;-82
2023/02/19 15:45:58;;;;;;;6.57;3.90;;;7.10;99.90;;;;;;12373266;28;20042;-82
2023/02/19 15:52:09;;;;;;;7.32;3.25;;;7.00;99.90;;;;;;12373565;28;20046;-82
2023/02/19 15:58:17;;;;;;;5.10;3.03;;;7.00;99.90;;;;;;12398445;28;20573;-82
2023/02/19 16:04:19;;;;;;;4.10;2.33;;;7.00;99.90;;;;;;12386091;28;20551;-82
2023/02/19 16:10:24;;;;;;;5.15;2.47;;;6.90;99.90;;;;;;12370806;28;20046;-82
2023/02/19 16:16:37;;;;;;;5.32;2.95;;;6.70;99.90;;;;;;12368493;28;20050;-82
2023/02/19 16:22:41;;;;;;;4.57;2.42;;;6.60;99.90;;;;;;12365316;28;20081;-83
2023/02/19 16:28:43;;;;;;;7.65;3.17;;;6.70;99.90;;;;;;12363623;28;20541;-82
2023/02/19 16:34:48;;;;;;;4.30;2.15;;;6.60;99.90;;;;;;12357278;28;20039;-82
2023/02/19 16:40:49;;;;;;;;;;;6.40;99.90;;;;;;12377550;28;20057;-82
2023/02/19 16:46:56;;;;;;;6.70;2.50;;;6.50;99.90;;;;;;12388600;28;20076;-82
2023/02/19 16:53:00;;;;;;;4.55;2.20;;;6.30;99.90;;;;;;12376644;28;20042;-82
2023/02/19 16:59:02;;;;;;;5.05;2.90;;;6.30;99.90;;;;;;12366964;28;20486;-82
2023/02/19 17:05:04;;;;;;;7.78;3.60;;;6.30;99.90;;;;;;12412601;28;20609;-82
2023/02/19 17:11:11;;;;;;;5.57;3.30;;;6.30;99.90;;;;;;12428143;28;20046;-82
2023/02/19 17:17:13;;;;;;;6.65;3.00;;;6.30;99.90;;;;;;12409925;28;20844;-82
2023/02/19 17:23:15;;;;;;;6.82;3.75;;;6.20;99.90;;;;;;12399724;28;20097;-82
2023/02/19 17:29:18;;;;;;;5.47;3.50;;;6.20;99.90;;;;;;12342194;28;20487;-82
2023/02/19 17:35:20;;;;;;;5.70;3.25;;;6.20;99.90;;;;;;12378096;28;20108;-83
2023/02/19 17:41:22;;;;;;;11.00;5.15;;;6.20;99.90;;;;;;12355802;28;20061;-82
2023/02/19 17:47:24;;;;;;;7.10;3.53;;;6.10;99.90;;;;;;12347232;28;20048;-82
2023/02/19 17:53:26;;;;;;;6.65;3.65;;;6.10;99.90;;;;;;12336864;28;20109;-82
2023/02/19 17:59:28;;;;;;;6.35;3.60;;;6.10;99.90;;;;;;12371842;28;20134;-82
2023/02/19 18:05:30;;;;;;;6.38;3.00;;;6.10;99.90;;;;;;12364750;28;20038;-82
2023/02/19 18:11:31;;;;;;;5.05;3.35;;;6.10;99.90;;;;;;12367231;28;20066;-82
2023/02/19 18:17:34;;;;;;;7.15;3.22;;;6.00;99.90;;;;;;12375041;28;20050;-82
2023/02/19 18:23:36;;;;;;;7.25;4.00;;;6.00;99.90;;;;;;12366908;28;20045;-82
2023/02/19 18:29:38;;;;;;;10.93;6.20;;;6.00;99.90;;;;;;12355370;28;20054;-82
2023/02/19 18:35:40;;;;;;;6.55;4.63;;;6.00;99.90;;;;;;12369776;28;20524;-82
2023/02/19 18:41:46;;;;;;;9.25;5.82;;;6.10;99.90;;;;;;12372258;28;20129;-82
2023/02/19 18:47:49;;;;;;;8.88;5.18;;;6.20;99.90;;;;;;12370845;28;20467;-82
2023/02/19 18:53:51;;;;;;;8.15;4.82;;;6.20;99.90;;;;;;12344653;28;20077;-82
2023/02/19 18:59:53;;;;;;;11.82;7.18;;;6.20;99.90;;;;;;12371502;28;20178;-83
2023/02/19 19:05:55;;;;;;;10.90;5.22;;;6.20;99.90;;;;;;12369817;28;20054;-82
2023/02/19 19:11:57;;;;;;;8.75;5.00;;;6.20;99.90;;;;;;12380090;28;20073;-82
2023/02/19 19:17:58;;;;;;;9.57;5.68;;;6.20;99.90;;;;;;12335923;28;20043;-82
2023/02/19 19:24:00;;;;;;;9.05;5.35;;;6.20;99.90;;;;;;12341162;28;20053;-82
2023/02/19 19:30:03;;;;;;;10.18;6.28;;;6.20;99.90;;;;;;12361902;28;20133;-82
2023/02/19 19:36:06;;;;;;;9.43;6.65;;;6.10;99.90;;;;;;12366689;28;20503;-82
2023/02/19 19:42:08;;;;;;;8.68;6.35;;;6.10;99.90;;;;;;12362752;28;20046;-82
2023/02/19 19:48:10;;;;;;;12.77;6.10;;;6.10;99.90;;;;;;12342948;28;20082;-82
2023/02/19 19:54:12;;;;;;;9.10;5.85;;;6.10;99.90;;;;;;12362321;28;20093;-82
2023/02/19 20:00:16;;;;;;;10.73;5.70;;;6.10;99.90;;;;;;12350684;28;20384;-82
2023/02/19 20:06:29;;;;;;;8.15;5.25;;;6.10;99.90;;;;;;12364438;28;20137;-82
2023/02/19 20:12:31;;;;;;;10.23;5.22;;;6.10;99.90;;;;;;12372455;28;20129;-82
2023/02/19 20:18:33;;;;;;;8.60;5.55;;;6.20;99.90;;;;;;12379923;28;20165;-82
2023/02/19 20:24:35;;;;;;;13.00;6.10;;;6.10;99.90;;;;;;12353109;28;20201;-82
2023/02/19 20:30:37;;;;;;;9.98;6.20;;;6.10;99.90;;;;;;12363874;28;20100;-82
2023/02/19 20:36:44;;;;;;;9.98;5.85;;;6.10;99.90;;;;;;12364079;28;20483;-82
2023/02/19 20:42:46;;;;;;;10.00;5.70;;;6.10;99.90;;;;;;12388988;28;20086;-82
2023/02/19 20:48:47;;;;;;;12.15;6.38;;;6.20;99.90;;;;;;12364628;28;20092;-82
2023/02/19 20:54:54;;;;;;;13.10;6.80;;;6.10;99.90;;;;;;12338659;28;20697;-82
2023/02/19 21:00:56;;;;;;;11.20;6.85;;;6.10;99.90;;;;;;12386036;28;20805;-82
2023/02/19 21:06:58;;;;;;;9.88;6.00;;;6.10;99.90;;;;;;12381129;28;20105;-82
2023/02/19 21:13:00;;;;;;;9.90;5.95;;;6.10;99.90;;;;;;12380970;28;20435;-82
2023/02/19 21:19:02;;;;;;;10.50;6.10;;;6.00;99.90;;;;;;12355855;28;20078;-82
2023/02/19 21:25:04;;;;;;;12.57;7.30;;;6.00;99.90;;;;;;12361479;28;20046;-82
2023/02/19 21:31:06;;;;;;;13.05;6.53;;;6.00;99.90;;;;;;12376316;28;20061;-82
2023/02/19 21:37:08;;;;;;;10.52;5.90;;;6.10;99.90;;;;;;12380689;28;20089;-82
2023/02/19 21:43:11;;;;;;;12.15;7.28;;;6.20;99.90;;;;;;12382976;28;20494;-82
2023/02/19 21:49:13;;;;;;;13.05;6.90;;;6.20;99.90;;;;;;12351970;28;20054;-82
2023/02/19 21:55:15;;;;;;;12.32;6.57;;;6.20;99.90;;;;;;12369631;28;20057;-81
2023/02/19 22:01:29;;;;;;;10.15;5.85;;;6.20;99.90;;;;;;12355348;28;20050;-82
2023/02/19 22:07:30;;;;;;;9.90;4.90;;;6.30;99.90;;;;;;12377888;28;20050;-81
2023/02/19 22:13:34;;;;;;;7.35;4.70;;;6.40;99.90;;;;;;12348988;28;20061;-81
2023/02/19 22:19:35;;;;;;;7.72;4.63;;;6.40;99.90;;;;;;12353145;28;20050;-82
2023/02/19 22:25:37;;;;;;;10.00;4.55;;;6.30;99.90;;;;;;12356637;28;20628;-81
2023/02/19 22:31:40;;;;;;;7.03;4.35;;;6.30;99.90;;;;;;12354643;28;20047;-82
2023/02/19 22:37:42;;;;;;;7.95;4.40;;;6.20;99.90;;;;;;12374952;28;20058;-81
2023/02/19 22:43:47;;;;;;;6.85;4.32;;;6.20;99.90;;;;;;12371190;28;20410;-82
2023/02/19 22:49:49;;;;;;;8.50;4.18;;;6.20;99.90;;;;;;12381401;28;20101;-81
2023/02/19 22:55:51;;;;;;;5.40;3.35;;;6.10;99.90;;;;;;12360916;28;20051;-81
2023/02/19 23:01:58;;;;;;;6.85;3.53;;;6.10;99.90;;;;;;12384293;28;20046;-81
2023/02/19 23:08:03;;;;;;;5.28;3.30;;;6.00;99.90;;;;;;12377543;28;20096;-81
2023/02/19 23:14:06;;;;;;;5.35;3.10;;;6.10;99.90;;;;;;12359776;28;20047;-81
2023/02/19 23:20:08;;;;;;;5.85;3.78;;;6.20;99.90;;;;;;12370420;28;20094;-81
2023/02/19 23:26:10;;;;;;;10.05;4.97;;;6.10;99.90;;;;;;12367547;28;20047;-81
2023/02/19 23:32:13;;;;;;;9.63;5.28;;;6.20;99.90;;;;;;12378775;28;20406;-82
2023/02/19 23:38:15;;;;;;;10.48;6.10;;;6.20;99.90;;;;;;12379051;28;20061;-81
2023/02/19 23:44:17;;;;;;;9.32;5.20;;;6.30;99.90;;;;;;12370170;28;20133;-81
2023/02/19 23:50:19;;;;;;;6.90;4.97;;;6.30;99.90;;;;;;12361302;28;20419;-81
2023/02/19 23:56:26;;;;;;;8.93;5.10;;;6.30;99.90;;;;;;12341207;28;20051;-81
